This is the latest recevied weather packets stored in our database for station/object LKMT. If no packets are shown the sender has not sent any weather packets the latest 1 day(s).
| Time | Temp. | Humidity | Pressure | Rain* | Wind** | Luminosity | Snow |
|---|---|---|---|---|---|---|---|
| 1777987318 | 26.11° C | 16% | - | - | 9.83 m/s, 210° | - | - |
| 1777986154 | 26.11° C | 19% | 1007 hPa | - | 9.83 m/s, 200° | - | - |
| 1777984352 | 25° C | 19% | 1007 hPa | - | 9.39 m/s, 210° | - | - |
| 1777983718 | 25° C | 19% | - | - | 10.73 m/s, 210° | - | - |
| 1777982546 | 25° C | 19% | 1008 hPa | - | 10.73 m/s, 210° | - | - |
| 1777980750 | 25° C | 20% | 1008 hPa | - | 5.36 m/s, 200° | - | - |
| 1777980118 | 23.89° C | 17% | - | - | 6.26 m/s, 180° | - | - |
| 1777978964 | 23.89° C | 19% | 1008 hPa | - | 5.81 m/s, 180° | - | - |
| 1777977144 | 25° C | 16% | 1008 hPa | - | 6.71 m/s, 180° | - | - |
| 1777976518 | 23.89° C | 19% | - | - | 5.36 m/s, 200° | - | - |
| 1777975354 | 22.78° C | 23% | 1009 hPa | - | 6.26 m/s, 200° | - | - |
| 1777973551 | 23.89° C | 23% | 1009 hPa | - | 7.15 m/s, 200° | - | - |
| 1777972916 | 22.78° C | 23% | - | - | 6.26 m/s, 200° | - | - |
| 1777971753 | 22.78° C | 27% | 1009 hPa | - | 6.26 m/s, 200° | - | - |
| 1777969951 | 22.78° C | 25% | 1009 hPa | - | 6.71 m/s, 190° | - | - |
| 1777969317 | 22.78° C | 27% | - | - | 6.26 m/s, 190° | - | - |
| 1777968158 | 22.78° C | 27% | 1009 hPa | - | 6.26 m/s, 190° | - | - |
| 1777966351 | 22.22° C | 33% | 1009 hPa | - | 3.13 m/s, 200° | - | - |
| 1777965717 | 18.89° C | 45% | - | - | 0.89 m/s, 0° | - | - |
| 1777964559 | 17.78° C | 48% | 1010 hPa | - | 1.34 m/s, 310° | - | - |
| 1777962750 | 17.22° C | 51% | 1010 hPa | - | 0.89 m/s, 0° | - | - |
| 1777962118 | 13.89° C | 58% | - | - | 0.89 m/s, 0° | - | - |
| 1777960953 | 13.89° C | 67% | 1010 hPa | - | 0.45 m/s, 0° | - | - |
| 1777959140 | 12.22° C | 66% | 1010 hPa | - | 0.45 m/s, 0° | - | - |
| 1777958515 | 11.11° C | 71% | - | - | 0.89 m/s, 0° | - | - |
* Rain since midnight (hover to see other rain measurements)
** Current wind speed in m/s (hover to see current wind gust speed)